sensor_id;sensor_type;location;lat;lon;timestamp;temperature;humidity
52879;DHT22;38747;53.140;6.498;2023-07-16T00:02:01;16.90;99.90
52879;DHT22;38747;53.140;6.498;2023-07-16T00:04:27;16.80;99.90
52879;DHT22;38747;53.140;6.498;2023-07-16T00:06:52;16.80;99.90
52879;DHT22;38747;53.140;6.498;2023-07-16T00:09:18;16.70;99.90
52879;DHT22;38747;53.140;6.498;2023-07-16T00:11:44;16.70;99.90
52879;DHT22;38747;53.140;6.498;2023-07-16T00:14:10;16.70;99.90
52879;DHT22;38747;53.140;6.498;2023-07-16T00:16:37;16.70;99.90
52879;DHT22;38747;53.140;6.498;2023-07-16T00:19:03;16.70;99.90
52879;DHT22;38747;53.140;6.498;2023-07-16T00:21:29;16.70;99.90
52879;DHT22;38747;53.140;6.498;2023-07-16T00:23:54;16.70;99.90
52879;DHT22;38747;53.140;6.498;2023-07-16T00:26:21;16.70;99.90
52879;DHT22;38747;53.140;6.498;2023-07-16T00:28:47;16.70;99.90
52879;DHT22;38747;53.140;6.498;2023-07-16T00:31:13;16.60;99.90
52879;DHT22;38747;53.140;6.498;2023-07-16T00:33:38;16.70;99.90
52879;DHT22;38747;53.140;6.498;2023-07-16T00:36:04;16.60;99.90
52879;DHT22;38747;53.140;6.498;2023-07-16T00:38:30;16.70;99.90
52879;DHT22;38747;53.140;6.498;2023-07-16T00:40:56;16.60;99.90
52879;DHT22;38747;53.140;6.498;2023-07-16T00:43:24;16.60;99.90
52879;DHT22;38747;53.140;6.498;2023-07-16T00:45:50;16.60;99.90
52879;DHT22;38747;53.140;6.498;2023-07-16T00:48:15;16.60;99.90
52879;DHT22;38747;53.140;6.498;2023-07-16T00:50:41;16.60;99.90
52879;DHT22;38747;53.140;6.498;2023-07-16T00:53:08;16.60;99.90
52879;DHT22;38747;53.140;6.498;2023-07-16T00:55:35;16.60;99.90
52879;DHT22;38747;53.140;6.498;2023-07-16T00:58:06;16.60;99.90
52879;DHT22;38747;53.140;6.498;2023-07-16T01:00:33;16.60;99.90
52879;DHT22;38747;53.140;6.498;2023-07-16T01:02:59;16.60;99.90
52879;DHT22;38747;53.140;6.498;2023-07-16T01:05:28;16.50;99.90
52879;DHT22;38747;53.140;6.498;2023-07-16T01:07:58;16.60;99.90
52879;DHT22;38747;53.140;6.498;2023-07-16T01:10:25;16.60;99.90
52879;DHT22;38747;53.140;6.498;2023-07-16T01:12:54;16.60;99.90
52879;DHT22;38747;53.140;6.498;2023-07-16T01:15:21;16.70;99.90
52879;DHT22;38747;53.140;6.498;2023-07-16T01:17:46;16.70;99.90
52879;DHT22;38747;53.140;6.498;2023-07-16T01:20:12;16.80;99.90
52879;DHT22;38747;53.140;6.498;2023-07-16T01:29:06;16.80;99.90
52879;DHT22;38747;53.140;6.498;2023-07-16T01:31:33;16.80;99.90
52879;DHT22;38747;53.140;6.498;2023-07-16T01:34:00;16.70;99.90
52879;DHT22;38747;53.140;6.498;2023-07-16T01:36:27;16.70;99.90
52879;DHT22;38747;53.140;6.498;2023-07-16T01:38:53;16.70;99.90
52879;DHT22;38747;53.140;6.498;2023-07-16T01:41:19;16.70;99.90
52879;DHT22;38747;53.140;6.498;2023-07-16T01:43:45;16.70;99.90
52879;DHT22;38747;53.140;6.498;2023-07-16T01:46:11;16.70;99.90
52879;DHT22;38747;53.140;6.498;2023-07-16T01:48:37;16.70;99.90
52879;DHT22;38747;53.140;6.498;2023-07-16T01:51:04;16.70;99.90
52879;DHT22;38747;53.140;6.498;2023-07-16T01:53:30;16.70;99.90
52879;DHT22;38747;53.140;6.498;2023-07-16T01:55:57;16.70;99.90
52879;DHT22;38747;53.140;6.498;2023-07-16T01:58:23;16.70;99.90
52879;DHT22;38747;53.140;6.498;2023-07-16T02:00:50;16.70;99.90
52879;DHT22;38747;53.140;6.498;2023-07-16T02:03:16;16.70;99.90
52879;DHT22;38747;53.140;6.498;2023-07-16T02:05:41;16.60;99.90
52879;DHT22;38747;53.140;6.498;2023-07-16T02:08:07;16.60;99.90
52879;DHT22;38747;53.140;6.498;2023-07-16T02:10:33;16.60;99.90
52879;DHT22;38747;53.140;6.498;2023-07-16T02:12:58;16.60;99.90
52879;DHT22;38747;53.140;6.498;2023-07-16T02:15:24;16.60;99.90
52879;DHT22;38747;53.140;6.498;2023-07-16T02:17:50;16.50;99.90
52879;DHT22;38747;53.140;6.498;2023-07-16T02:20:15;16.60;99.90
52879;DHT22;38747;53.140;6.498;2023-07-16T02:22:41;16.60;99.90
52879;DHT22;38747;53.140;6.498;2023-07-16T02:25:07;16.60;99.90
52879;DHT22;38747;53.140;6.498;2023-07-16T02:27:32;16.60;99.90
52879;DHT22;38747;53.140;6.498;2023-07-16T02:29:58;16.60;99.90
52879;DHT22;38747;53.140;6.498;2023-07-16T02:32:24;16.60;99.90
52879;DHT22;38747;53.140;6.498;2023-07-16T02:34:50;16.60;99.90
52879;DHT22;38747;53.140;6.498;2023-07-16T02:37:15;16.60;99.90
52879;DHT22;38747;53.140;6.498;2023-07-16T02:39:42;16.60;99.90
52879;DHT22;38747;53.140;6.498;2023-07-16T02:42:08;16.60;99.90
52879;DHT22;38747;53.140;6.498;2023-07-16T02:44:34;16.60;99.90
52879;DHT22;38747;53.140;6.498;2023-07-16T02:47:04;16.60;99.90
52879;DHT22;38747;53.140;6.498;2023-07-16T02:49:29;16.60;99.90
52879;DHT22;38747;53.140;6.498;2023-07-16T02:51:55;16.60;99.90
52879;DHT22;38747;53.140;6.498;2023-07-16T02:54:20;16.70;99.90
52879;DHT22;38747;53.140;6.498;2023-07-16T02:56:47;16.70;99.90
52879;DHT22;38747;53.140;6.498;2023-07-16T02:59:12;16.70;99.90
52879;DHT22;38747;53.140;6.498;2023-07-16T03:01:38;16.60;99.90
52879;DHT22;38747;53.140;6.498;2023-07-16T03:04:03;16.60;99.90
52879;DHT22;38747;53.140;6.498;2023-07-16T03:06:29;16.60;99.90
52879;DHT22;38747;53.140;6.498;2023-07-16T03:08:55;16.60;99.90
52879;DHT22;38747;53.140;6.498;2023-07-16T03:11:20;16.60;99.90
52879;DHT22;38747;53.140;6.498;2023-07-16T03:13:46;16.60;99.90
52879;DHT22;38747;53.140;6.498;2023-07-16T03:16:12;16.60;99.90
52879;DHT22;38747;53.140;6.498;2023-07-16T03:18:37;16.60;99.90
52879;DHT22;38747;53.140;6.498;2023-07-16T03:21:03;16.60;99.90
52879;DHT22;38747;53.140;6.498;2023-07-16T03:23:29;16.50;99.90
52879;DHT22;38747;53.140;6.498;2023-07-16T03:25:54;16.50;99.90
52879;DHT22;38747;53.140;6.498;2023-07-16T03:28:20;16.50;99.90
52879;DHT22;38747;53.140;6.498;2023-07-16T03:30:47;16.50;99.90
52879;DHT22;38747;53.140;6.498;2023-07-16T03:33:13;16.60;99.90
52879;DHT22;38747;53.140;6.498;2023-07-16T03:35:45;16.50;99.90
52879;DHT22;38747;53.140;6.498;2023-07-16T03:38:12;16.50;99.90
52879;DHT22;38747;53.140;6.498;2023-07-16T03:40:38;16.50;99.90
52879;DHT22;38747;53.140;6.498;2023-07-16T03:43:04;16.50;99.90
52879;DHT22;38747;53.140;6.498;2023-07-16T03:45:29;16.60;99.90
52879;DHT22;38747;53.140;6.498;2023-07-16T03:47:55;16.50;99.90
52879;DHT22;38747;53.140;6.498;2023-07-16T03:50:21;16.50;99.90
52879;DHT22;38747;53.140;6.498;2023-07-16T03:52:46;16.50;99.90
52879;DHT22;38747;53.140;6.498;2023-07-16T03:55:12;16.50;99.90
52879;DHT22;38747;53.140;6.498;2023-07-16T03:57:38;16.50;99.90
52879;DHT22;38747;53.140;6.498;2023-07-16T04:00:04;16.40;99.90
52879;DHT22;38747;53.140;6.498;2023-07-16T04:02:32;16.40;99.90
52879;DHT22;38747;53.140;6.498;2023-07-16T04:04:58;16.40;99.90
52879;DHT22;38747;53.140;6.498;2023-07-16T04:07:23;16.50;99.90
52879;DHT22;38747;53.140;6.498;2023-07-16T04:09:49;16.40;99.90
52879;DHT22;38747;53.140;6.498;2023-07-16T04:12:15;16.60;99.90
52879;DHT22;38747;53.140;6.498;2023-07-16T04:14:41;17.00;99.90
52879;DHT22;38747;53.140;6.498;2023-07-16T04:17:06;17.10;99.90
52879;DHT22;38747;53.140;6.498;2023-07-16T04:19:32;17.10;99.90
52879;DHT22;38747;53.140;6.498;2023-07-16T04:21:57;17.00;99.90
52879;DHT22;38747;53.140;6.498;2023-07-16T04:24:23;16.90;99.90
52879;DHT22;38747;53.140;6.498;2023-07-16T04:26:49;16.80;99.90
52879;DHT22;38747;53.140;6.498;2023-07-16T04:29:15;16.80;99.90
52879;DHT22;38747;53.140;6.498;2023-07-16T04:31:41;16.70;99.90
52879;DHT22;38747;53.140;6.498;2023-07-16T04:34:06;16.70;99.90
52879;DHT22;38747;53.140;6.498;2023-07-16T04:36:32;16.70;99.90
52879;DHT22;38747;53.140;6.498;2023-07-16T04:38:58;16.70;99.90
52879;DHT22;38747;53.140;6.498;2023-07-16T04:41:23;16.70;99.90
52879;DHT22;38747;53.140;6.498;2023-07-16T04:43:49;16.70;99.90
52879;DHT22;38747;53.140;6.498;2023-07-16T04:46:14;16.70;99.90
52879;DHT22;38747;53.140;6.498;2023-07-16T04:48:41;16.70;99.90
52879;DHT22;38747;53.140;6.498;2023-07-16T04:51:07;16.80;99.90
52879;DHT22;38747;53.140;6.498;2023-07-16T04:53:33;16.80;99.90
52879;DHT22;38747;53.140;6.498;2023-07-16T04:55:58;16.80;99.90
52879;DHT22;38747;53.140;6.498;2023-07-16T04:58:24;16.80;99.90
52879;DHT22;38747;53.140;6.498;2023-07-16T05:00:50;16.90;99.90
52879;DHT22;38747;53.140;6.498;2023-07-16T05:03:15;17.00;99.90
52879;DHT22;38747;53.140;6.498;2023-07-16T05:05:41;17.00;99.90
52879;DHT22;38747;53.140;6.498;2023-07-16T05:08:07;17.10;99.90
52879;DHT22;38747;53.140;6.498;2023-07-16T05:10:33;17.10;99.90
52879;DHT22;38747;53.140;6.498;2023-07-16T05:12:58;17.10;99.90
52879;DHT22;38747;53.140;6.498;2023-07-16T05:15:24;17.20;99.90
52879;DHT22;38747;53.140;6.498;2023-07-16T05:17:50;17.20;99.90
52879;DHT22;38747;53.140;6.498;2023-07-16T05:20:15;17.20;99.90
52879;DHT22;38747;53.140;6.498;2023-07-16T05:22:41;17.20;99.90
52879;DHT22;38747;53.140;6.498;2023-07-16T05:25:07;17.20;99.90
52879;DHT22;38747;53.140;6.498;2023-07-16T05:27:33;17.20;99.90
52879;DHT22;38747;53.140;6.498;2023-07-16T05:29:58;17.30;99.90
52879;DHT22;38747;53.140;6.498;2023-07-16T05:32:24;17.40;99.90
52879;DHT22;38747;53.140;6.498;2023-07-16T05:34:49;17.50;99.90
52879;DHT22;38747;53.140;6.498;2023-07-16T05:37:15;17.70;99.90
52879;DHT22;38747;53.140;6.498;2023-07-16T05:39:41;17.70;99.90
52879;DHT22;38747;53.140;6.498;2023-07-16T05:42:06;17.70;99.90
52879;DHT22;38747;53.140;6.498;2023-07-16T05:44:33;17.60;99.90
52879;DHT22;38747;53.140;6.498;2023-07-16T05:46:58;17.60;99.90
52879;DHT22;38747;53.140;6.498;2023-07-16T05:49:25;17.60;99.90
52879;DHT22;38747;53.140;6.498;2023-07-16T05:51:52;17.50;99.90
52879;DHT22;38747;53.140;6.498;2023-07-16T05:54:17;17.60;99.90
52879;DHT22;38747;53.140;6.498;2023-07-16T05:56:43;17.60;99.90
52879;DHT22;38747;53.140;6.498;2023-07-16T05:59:09;17.60;99.90
52879;DHT22;38747;53.140;6.498;2023-07-16T06:01:35;17.60;99.90
52879;DHT22;38747;53.140;6.498;2023-07-16T06:04:01;17.70;99.90
52879;DHT22;38747;53.140;6.498;2023-07-16T06:06:28;17.80;99.90
52879;DHT22;38747;53.140;6.498;2023-07-16T06:08:53;17.80;99.90
52879;DHT22;38747;53.140;6.498;2023-07-16T06:11:19;17.80;99.90
52879;DHT22;38747;53.140;6.498;2023-07-16T06:13:46;17.80;99.90
52879;DHT22;38747;53.140;6.498;2023-07-16T06:16:11;17.90;99.90
52879;DHT22;38747;53.140;6.498;2023-07-16T06:18:37;17.90;99.90
52879;DHT22;38747;53.140;6.498;2023-07-16T06:21:03;17.90;99.90
52879;DHT22;38747;53.140;6.498;2023-07-16T06:23:28;18.00;99.90
52879;DHT22;38747;53.140;6.498;2023-07-16T06:25:55;18.10;99.90
52879;DHT22;38747;53.140;6.498;2023-07-16T06:28:21;18.10;99.90
52879;DHT22;38747;53.140;6.498;2023-07-16T06:30:46;18.20;99.90
52879;DHT22;38747;53.140;6.498;2023-07-16T06:33:12;18.20;99.90
52879;DHT22;38747;53.140;6.498;2023-07-16T06:35:38;18.30;99.90
52879;DHT22;38747;53.140;6.498;2023-07-16T06:38:03;18.30;99.90
52879;DHT22;38747;53.140;6.498;2023-07-16T06:40:29;18.30;99.90
52879;DHT22;38747;53.140;6.498;2023-07-16T06:42:56;18.20;99.90
52879;DHT22;38747;53.140;6.498;2023-07-16T06:45:22;18.30;99.90
52879;DHT22;38747;53.140;6.498;2023-07-16T06:47:48;18.30;99.90
52879;DHT22;38747;53.140;6.498;2023-07-16T06:50:14;18.40;99.90
52879;DHT22;38747;53.140;6.498;2023-07-16T06:52:40;18.40;99.90
52879;DHT22;38747;53.140;6.498;2023-07-16T06:55:06;18.50;99.90
52879;DHT22;38747;53.140;6.498;2023-07-16T06:57:31;18.50;99.90
52879;DHT22;38747;53.140;6.498;2023-07-16T06:59:57;18.60;99.90
52879;DHT22;38747;53.140;6.498;2023-07-16T07:02:23;18.70;99.90
52879;DHT22;38747;53.140;6.498;2023-07-16T07:04:48;18.90;99.90
52879;DHT22;38747;53.140;6.498;2023-07-16T07:07:14;18.90;99.90
52879;DHT22;38747;53.140;6.498;2023-07-16T07:09:40;18.80;99.90
52879;DHT22;38747;53.140;6.498;2023-07-16T07:12:06;18.70;99.90
52879;DHT22;38747;53.140;6.498;2023-07-16T07:14:33;18.70;99.90
52879;DHT22;38747;53.140;6.498;2023-07-16T07:16:58;18.80;99.90
52879;DHT22;38747;53.140;6.498;2023-07-16T07:19:24;18.90;99.90
52879;DHT22;38747;53.140;6.498;2023-07-16T07:21:49;18.90;99.90
52879;DHT22;38747;53.140;6.498;2023-07-16T07:24:15;19.00;99.90
52879;DHT22;38747;53.140;6.498;2023-07-16T07:26:41;18.90;99.90
52879;DHT22;38747;53.140;6.498;2023-07-16T07:29:06;18.90;99.90
52879;DHT22;38747;53.140;6.498;2023-07-16T07:31:33;18.80;99.90
52879;DHT22;38747;53.140;6.498;2023-07-16T07:33:58;18.80;99.90
52879;DHT22;38747;53.140;6.498;2023-07-16T07:36:24;18.80;99.90
52879;DHT22;38747;53.140;6.498;2023-07-16T07:38:50;18.80;99.90
52879;DHT22;38747;53.140;6.498;2023-07-16T07:41:16;19.00;99.90
52879;DHT22;38747;53.140;6.498;2023-07-16T07:43:42;19.20;99.90
52879;DHT22;38747;53.140;6.498;2023-07-16T07:46:08;19.30;99.90
52879;DHT22;38747;53.140;6.498;2023-07-16T07:48:33;19.30;99.90
52879;DHT22;38747;53.140;6.498;2023-07-16T07:50:59;19.20;99.90
52879;DHT22;38747;53.140;6.498;2023-07-16T07:53:25;19.20;99.90
52879;DHT22;38747;53.140;6.498;2023-07-16T07:55:50;19.10;99.90
52879;DHT22;38747;53.140;6.498;2023-07-16T07:58:16;19.10;99.90
52879;DHT22;38747;53.140;6.498;2023-07-16T08:00:42;19.10;99.90
52879;DHT22;38747;53.140;6.498;2023-07-16T08:03:07;19.20;99.90
52879;DHT22;38747;53.140;6.498;2023-07-16T08:05:33;19.30;99.90
52879;DHT22;38747;53.140;6.498;2023-07-16T08:07:59;19.40;99.90
52879;DHT22;38747;53.140;6.498;2023-07-16T08:10:25;19.50;99.90
52879;DHT22;38747;53.140;6.498;2023-07-16T08:12:51;19.40;99.90
52879;DHT22;38747;53.140;6.498;2023-07-16T08:15:18;19.40;99.90
52879;DHT22;38747;53.140;6.498;2023-07-16T08:17:44;19.40;99.90
52879;DHT22;38747;53.140;6.498;2023-07-16T08:20:11;19.20;99.90
52879;DHT22;38747;53.140;6.498;2023-07-16T08:22:39;19.10;99.90
52879;DHT22;38747;53.140;6.498;2023-07-16T08:25:06;18.90;99.90
52879;DHT22;38747;53.140;6.498;2023-07-16T08:27:31;18.70;99.90
52879;DHT22;38747;53.140;6.498;2023-07-16T08:29:57;18.70;99.90
52879;DHT22;38747;53.140;6.498;2023-07-16T08:32:23;18.70;99.90
52879;DHT22;38747;53.140;6.498;2023-07-16T08:34:49;18.60;99.90
52879;DHT22;38747;53.140;6.498;2023-07-16T08:37:15;18.50;99.90
52879;DHT22;38747;53.140;6.498;2023-07-16T08:39:40;18.60;99.90
52879;DHT22;38747;53.140;6.498;2023-07-16T08:42:06;18.70;99.90
52879;DHT22;38747;53.140;6.498;2023-07-16T08:44:34;19.10;99.90
52879;DHT22;38747;53.140;6.498;2023-07-16T08:47:00;19.30;99.90
52879;DHT22;38747;53.140;6.498;2023-07-16T08:49:29;19.50;99.90
52879;DHT22;38747;53.140;6.498;2023-07-16T08:51:55;19.70;99.90
52879;DHT22;38747;53.140;6.498;2023-07-16T08:54:24;19.70;99.90
52879;DHT22;38747;53.140;6.498;2023-07-16T08:56:51;20.00;99.90
52879;DHT22;38747;53.140;6.498;2023-07-16T08:59:17;20.20;99.90
52879;DHT22;38747;53.140;6.498;2023-07-16T09:01:43;20.20;99.90
52879;DHT22;38747;53.140;6.498;2023-07-16T09:04:09;20.40;99.90
52879;DHT22;38747;53.140;6.498;2023-07-16T09:06:35;20.40;99.90
52879;DHT22;38747;53.140;6.498;2023-07-16T09:09:01;20.30;99.90
52879;DHT22;38747;53.140;6.498;2023-07-16T09:11:26;20.40;99.90
52879;DHT22;38747;53.140;6.498;2023-07-16T09:13:52;20.50;99.90
52879;DHT22;38747;53.140;6.498;2023-07-16T09:16:18;20.40;99.90
52879;DHT22;38747;53.140;6.498;2023-07-16T09:18:44;20.50;99.90
52879;DHT22;38747;53.140;6.498;2023-07-16T09:21:10;20.40;99.90
52879;DHT22;38747;53.140;6.498;2023-07-16T09:23:37;20.30;99.90
52879;DHT22;38747;53.140;6.498;2023-07-16T09:26:03;20.20;99.90
52879;DHT22;38747;53.140;6.498;2023-07-16T09:28:31;20.00;99.90
52879;DHT22;38747;53.140;6.498;2023-07-16T09:31:03;19.90;99.90
52879;DHT22;38747;53.140;6.498;2023-07-16T09:33:31;19.90;99.90
52879;DHT22;38747;53.140;6.498;2023-07-16T09:35:57;19.80;99.90
52879;DHT22;38747;53.140;6.498;2023-07-16T09:38:23;19.80;99.90
52879;DHT22;38747;53.140;6.498;2023-07-16T09:40:52;19.80;99.90
52879;DHT22;38747;53.140;6.498;2023-07-16T09:43:19;19.80;99.90
52879;DHT22;38747;53.140;6.498;2023-07-16T09:45:46;19.80;99.90
52879;DHT22;38747;53.140;6.498;2023-07-16T09:48:15;19.90;99.90
52879;DHT22;38747;53.140;6.498;2023-07-16T09:50:54;19.90;99.90
52879;DHT22;38747;53.140;6.498;2023-07-16T09:53:21;19.90;99.90
52879;DHT22;38747;53.140;6.498;2023-07-16T09:55:48;19.90;99.90
52879;DHT22;38747;53.140;6.498;2023-07-16T09:58:14;20.00;99.90
52879;DHT22;38747;53.140;6.498;2023-07-16T10:00:42;20.30;99.90
52879;DHT22;38747;53.140;6.498;2023-07-16T10:03:08;20.60;99.90
52879;DHT22;38747;53.140;6.498;2023-07-16T10:05:36;20.70;99.90
52879;DHT22;38747;53.140;6.498;2023-07-16T10:08:03;20.70;99.90
52879;DHT22;38747;53.140;6.498;2023-07-16T10:13:12;20.80;99.90
52879;DHT22;38747;53.140;6.498;2023-07-16T10:15:39;20.70;99.90
52879;DHT22;38747;53.140;6.498;2023-07-16T10:18:05;20.70;99.90
52879;DHT22;38747;53.140;6.498;2023-07-16T10:20:35;20.80;99.90
52879;DHT22;38747;53.140;6.498;2023-07-16T10:23:15;21.00;99.90
52879;DHT22;38747;53.140;6.498;2023-07-16T10:25:58;21.30;99.90
52879;DHT22;38747;53.140;6.498;2023-07-16T10:28:23;21.50;99.90
52879;DHT22;38747;53.140;6.498;2023-07-16T10:30:50;21.50;99.90
52879;DHT22;38747;53.140;6.498;2023-07-16T10:33:16;21.40;99.90
52879;DHT22;38747;53.140;6.498;2023-07-16T10:35:45;21.10;99.90
52879;DHT22;38747;53.140;6.498;2023-07-16T10:38:11;20.80;99.90
52879;DHT22;38747;53.140;6.498;2023-07-16T10:40:41;20.70;99.90
52879;DHT22;38747;53.140;6.498;2023-07-16T10:43:08;20.50;99.90
52879;DHT22;38747;53.140;6.498;2023-07-16T10:45:33;20.40;99.90
52879;DHT22;38747;53.140;6.498;2023-07-16T10:47:59;20.50;99.90
52879;DHT22;38747;53.140;6.498;2023-07-16T10:50:25;21.00;99.90
52879;DHT22;38747;53.140;6.498;2023-07-16T10:52:55;21.30;99.90
52879;DHT22;38747;53.140;6.498;2023-07-16T10:55:21;21.40;99.90
52879;DHT22;38747;53.140;6.498;2023-07-16T10:57:48;21.40;99.90
52879;DHT22;38747;53.140;6.498;2023-07-16T11:00:15;21.30;99.90
52879;DHT22;38747;53.140;6.498;2023-07-16T11:02:42;21.30;99.90
52879;DHT22;38747;53.140;6.498;2023-07-16T11:05:13;21.30;99.90
52879;DHT22;38747;53.140;6.498;2023-07-16T11:07:43;21.30;99.90
52879;DHT22;38747;53.140;6.498;2023-07-16T11:10:10;21.50;99.90
52879;DHT22;38747;53.140;6.498;2023-07-16T11:12:35;21.60;99.90
52879;DHT22;38747;53.140;6.498;2023-07-16T11:15:01;21.50;99.90
52879;DHT22;38747;53.140;6.498;2023-07-16T11:17:27;21.50;99.90
52879;DHT22;38747;53.140;6.498;2023-07-16T11:19:54;21.40;99.90
52879;DHT22;38747;53.140;6.498;2023-07-16T11:22:24;21.30;99.90
52879;DHT22;38747;53.140;6.498;2023-07-16T11:24:51;21.10;99.90
52879;DHT22;38747;53.140;6.498;2023-07-16T11:27:18;21.00;99.90
52879;DHT22;38747;53.140;6.498;2023-07-16T11:29:57;20.80;99.90
52879;DHT22;38747;53.140;6.498;2023-07-16T11:34:54;20.80;99.90
52879;DHT22;38747;53.140;6.498;2023-07-16T11:37:19;21.00;99.90
52879;DHT22;38747;53.140;6.498;2023-07-16T11:39:47;21.20;99.90
52879;DHT22;38747;53.140;6.498;2023-07-16T11:42:13;21.10;99.90
52879;DHT22;38747;53.140;6.498;2023-07-16T11:44:39;21.10;99.90
52879;DHT22;38747;53.140;6.498;2023-07-16T11:47:04;21.00;99.90
52879;DHT22;38747;53.140;6.498;2023-07-16T11:49:30;21.00;99.90
52879;DHT22;38747;53.140;6.498;2023-07-16T11:51:57;20.90;99.90
52879;DHT22;38747;53.140;6.498;2023-07-16T11:54:24;20.70;99.90
52879;DHT22;38747;53.140;6.498;2023-07-16T11:56:49;20.60;99.90
52879;DHT22;38747;53.140;6.498;2023-07-16T11:59:16;20.60;99.90
52879;DHT22;38747;53.140;6.498;2023-07-16T12:01:46;20.50;99.90
52879;DHT22;38747;53.140;6.498;2023-07-16T12:04:12;20.60;99.90
52879;DHT22;38747;53.140;6.498;2023-07-16T12:06:38;20.70;99.90
52879;DHT22;38747;53.140;6.498;2023-07-16T12:09:03;20.70;99.90
52879;DHT22;38747;53.140;6.498;2023-07-16T12:11:29;20.80;99.90
52879;DHT22;38747;53.140;6.498;2023-07-16T12:13:55;20.90;99.90
52879;DHT22;38747;53.140;6.498;2023-07-16T12:16:21;20.80;99.90
52879;DHT22;38747;53.140;6.498;2023-07-16T12:18:46;20.70;99.90
52879;DHT22;38747;53.140;6.498;2023-07-16T12:21:12;20.60;99.90
52879;DHT22;38747;53.140;6.498;2023-07-16T12:23:37;20.50;99.90
52879;DHT22;38747;53.140;6.498;2023-07-16T12:26:03;20.60;99.90
52879;DHT22;38747;53.140;6.498;2023-07-16T12:28:29;20.90;99.90
52879;DHT22;38747;53.140;6.498;2023-07-16T12:30:54;21.20;99.90
52879;DHT22;38747;53.140;6.498;2023-07-16T12:33:20;21.20;99.90
52879;DHT22;38747;53.140;6.498;2023-07-16T12:35:45;21.20;99.90
52879;DHT22;38747;53.140;6.498;2023-07-16T12:38:12;21.10;99.90
52879;DHT22;38747;53.140;6.498;2023-07-16T12:40:38;21.00;99.90
52879;DHT22;38747;53.140;6.498;2023-07-16T12:43:06;20.90;99.90
52879;DHT22;38747;53.140;6.498;2023-07-16T12:45:32;20.80;99.90
52879;DHT22;38747;53.140;6.498;2023-07-16T12:47:58;21.00;99.90
52879;DHT22;38747;53.140;6.498;2023-07-16T12:50:24;21.40;99.90
52879;DHT22;38747;53.140;6.498;2023-07-16T12:52:51;21.50;99.90
52879;DHT22;38747;53.140;6.498;2023-07-16T12:55:17;21.60;99.90
52879;DHT22;38747;53.140;6.498;2023-07-16T12:57:43;21.60;99.90
52879;DHT22;38747;53.140;6.498;2023-07-16T13:00:09;21.60;99.90
52879;DHT22;38747;53.140;6.498;2023-07-16T13:02:36;21.40;99.90
52879;DHT22;38747;53.140;6.498;2023-07-16T13:05:03;21.40;99.90
52879;DHT22;38747;53.140;6.498;2023-07-16T13:07:29;21.40;99.90
52879;DHT22;38747;53.140;6.498;2023-07-16T13:09:56;21.60;99.90
52879;DHT22;38747;53.140;6.498;2023-07-16T13:12:21;21.80;99.90
52879;DHT22;38747;53.140;6.498;2023-07-16T13:14:47;21.80;99.90
52879;DHT22;38747;53.140;6.498;2023-07-16T13:17:12;21.80;99.90
52879;DHT22;38747;53.140;6.498;2023-07-16T13:19:40;21.80;99.90
52879;DHT22;38747;53.140;6.498;2023-07-16T13:22:06;22.00;99.90
52879;DHT22;38747;53.140;6.498;2023-07-16T13:24:31;22.10;99.90
52879;DHT22;38747;53.140;6.498;2023-07-16T13:26:57;22.20;99.90
52879;DHT22;38747;53.140;6.498;2023-07-16T13:29:22;22.30;99.90
52879;DHT22;38747;53.140;6.498;2023-07-16T13:31:48;22.30;99.90
52879;DHT22;38747;53.140;6.498;2023-07-16T13:34:14;22.20;99.90
52879;DHT22;38747;53.140;6.498;2023-07-16T13:36:39;22.10;99.90
52879;DHT22;38747;53.140;6.498;2023-07-16T13:39:05;22.10;99.90
52879;DHT22;38747;53.140;6.498;2023-07-16T13:41:31;22.10;99.90
52879;DHT22;38747;53.140;6.498;2023-07-16T13:43:57;22.30;99.90
52879;DHT22;38747;53.140;6.498;2023-07-16T13:46:23;22.40;99.90
52879;DHT22;38747;53.140;6.498;2023-07-16T13:48:48;22.50;99.90
52879;DHT22;38747;53.140;6.498;2023-07-16T13:51:14;22.60;99.90
52879;DHT22;38747;53.140;6.498;2023-07-16T13:53:39;22.70;99.90
52879;DHT22;38747;53.140;6.498;2023-07-16T13:56:06;22.60;99.90
52879;DHT22;38747;53.140;6.498;2023-07-16T13:58:33;22.50;99.90
52879;DHT22;38747;53.140;6.498;2023-07-16T14:00:58;22.40;99.90
52879;DHT22;38747;53.140;6.498;2023-07-16T14:03:24;22.30;99.90
52879;DHT22;38747;53.140;6.498;2023-07-16T14:05:50;22.30;99.90
52879;DHT22;38747;53.140;6.498;2023-07-16T14:08:15;22.30;99.90
52879;DHT22;38747;53.140;6.498;2023-07-16T14:10:41;22.20;99.90
52879;DHT22;38747;53.140;6.498;2023-07-16T14:13:06;22.20;99.90
52879;DHT22;38747;53.140;6.498;2023-07-16T14:15:32;22.20;99.90
52879;DHT22;38747;53.140;6.498;2023-07-16T14:17:58;22.40;99.90
52879;DHT22;38747;53.140;6.498;2023-07-16T14:20:23;22.60;99.90
52879;DHT22;38747;53.140;6.498;2023-07-16T14:22:49;22.60;99.90
52879;DHT22;38747;53.140;6.498;2023-07-16T14:25:14;22.70;99.90
52879;DHT22;38747;53.140;6.498;2023-07-16T14:27:41;22.90;99.90
52879;DHT22;38747;53.140;6.498;2023-07-16T14:30:07;23.00;99.90
52879;DHT22;38747;53.140;6.498;2023-07-16T14:32:34;23.00;99.90
52879;DHT22;38747;53.140;6.498;2023-07-16T14:35:00;23.10;99.90
52879;DHT22;38747;53.140;6.498;2023-07-16T14:37:26;23.00;99.90
52879;DHT22;38747;53.140;6.498;2023-07-16T14:39:52;22.90;99.90
52879;DHT22;38747;53.140;6.498;2023-07-16T14:42:17;23.00;99.90
52879;DHT22;38747;53.140;6.498;2023-07-16T14:44:43;22.90;99.90
52879;DHT22;38747;53.140;6.498;2023-07-16T14:47:08;23.00;99.90
52879;DHT22;38747;53.140;6.498;2023-07-16T14:49:35;23.10;99.90
52879;DHT22;38747;53.140;6.498;2023-07-16T14:52:00;23.20;99.90
52879;DHT22;38747;53.140;6.498;2023-07-16T14:54:26;23.10;99.90
52879;DHT22;38747;53.140;6.498;2023-07-16T14:56:52;23.00;99.90
52879;DHT22;38747;53.140;6.498;2023-07-16T14:59:18;23.10;99.90
52879;DHT22;38747;53.140;6.498;2023-07-16T15:01:43;23.20;99.90
52879;DHT22;38747;53.140;6.498;2023-07-16T15:04:09;23.20;99.90
52879;DHT22;38747;53.140;6.498;2023-07-16T15:06:35;23.20;99.90
52879;DHT22;38747;53.140;6.498;2023-07-16T15:09:00;23.00;99.90
52879;DHT22;38747;53.140;6.498;2023-07-16T15:11:26;22.80;99.90
52879;DHT22;38747;53.140;6.498;2023-07-16T15:13:52;22.60;99.90
52879;DHT22;38747;53.140;6.498;2023-07-16T15:16:17;22.50;99.90
52879;DHT22;38747;53.140;6.498;2023-07-16T15:18:43;22.40;99.90
52879;DHT22;38747;53.140;6.498;2023-07-16T15:21:10;22.20;99.90
52879;DHT22;38747;53.140;6.498;2023-07-16T15:23:36;22.20;99.90
52879;DHT22;38747;53.140;6.498;2023-07-16T15:26:03;22.30;99.90
52879;DHT22;38747;53.140;6.498;2023-07-16T15:28:31;22.20;99.90
52879;DHT22;38747;53.140;6.498;2023-07-16T15:31:02;22.20;99.90
52879;DHT22;38747;53.140;6.498;2023-07-16T15:33:28;22.10;99.90
52879;DHT22;38747;53.140;6.498;2023-07-16T15:35:55;22.00;99.90